sensor_id;sensor_type;location;lat;lon;timestamp;temperature;humidity
2631;DHT22;1325;48.414;9.952;2022-07-11T00:02:23;12.70;99.90
2631;DHT22;1325;48.414;9.952;2022-07-11T00:04:50;12.10;99.90
2631;DHT22;1325;48.414;9.952;2022-07-11T00:07:19;11.60;99.90
2631;DHT22;1325;48.414;9.952;2022-07-11T00:09:46;11.40;99.90
2631;DHT22;1325;48.414;9.952;2022-07-11T00:12:13;11.10;99.90
2631;DHT22;1325;48.414;9.952;2022-07-11T00:14:41;10.90;99.90
2631;DHT22;1325;48.414;9.952;2022-07-11T00:17:09;10.80;99.90
2631;DHT22;1325;48.414;9.952;2022-07-11T00:19:37;10.90;99.90
2631;DHT22;1325;48.414;9.952;2022-07-11T00:22:05;10.80;99.90
2631;DHT22;1325;48.414;9.952;2022-07-11T00:24:33;10.90;99.90
2631;DHT22;1325;48.414;9.952;2022-07-11T00:27:00;10.90;99.90
2631;DHT22;1325;48.414;9.952;2022-07-11T00:29:28;11.10;99.90
2631;DHT22;1325;48.414;9.952;2022-07-11T00:31:55;11.40;99.90
2631;DHT22;1325;48.414;9.952;2022-07-11T00:34:23;11.40;99.90
2631;DHT22;1325;48.414;9.952;2022-07-11T00:36:50;11.20;99.90
2631;DHT22;1325;48.414;9.952;2022-07-11T00:39:17;10.90;99.90
2631;DHT22;1325;48.414;9.952;2022-07-11T00:41:46;10.80;99.90
2631;DHT22;1325;48.414;9.952;2022-07-11T00:44:13;11.10;99.90
2631;DHT22;1325;48.414;9.952;2022-07-11T00:46:40;10.70;99.90
2631;DHT22;1325;48.414;9.952;2022-07-11T00:49:08;10.80;99.90
2631;DHT22;1325;48.414;9.952;2022-07-11T00:51:36;11.10;99.90
2631;DHT22;1325;48.414;9.952;2022-07-11T00:54:03;11.50;99.90
2631;DHT22;1325;48.414;9.952;2022-07-11T00:56:33;11.70;99.90
2631;DHT22;1325;48.414;9.952;2022-07-11T00:59:02;11.40;99.90
2631;DHT22;1325;48.414;9.952;2022-07-11T01:01:29;11.10;99.90
2631;DHT22;1325;48.414;9.952;2022-07-11T01:03:58;10.60;99.90
2631;DHT22;1325;48.414;9.952;2022-07-11T01:06:25;10.80;99.90
2631;DHT22;1325;48.414;9.952;2022-07-11T01:08:52;11.30;99.90
2631;DHT22;1325;48.414;9.952;2022-07-11T01:11:19;11.20;99.90
2631;DHT22;1325;48.414;9.952;2022-07-11T01:13:47;11.40;99.90
2631;DHT22;1325;48.414;9.952;2022-07-11T01:16:17;11.50;99.90
2631;DHT22;1325;48.414;9.952;2022-07-11T01:18:46;11.30;99.90
2631;DHT22;1325;48.414;9.952;2022-07-11T01:21:24;10.70;99.90
2631;DHT22;1325;48.414;9.952;2022-07-11T01:23:55;10.70;99.90
2631;DHT22;1325;48.414;9.952;2022-07-11T01:26:24;11.00;99.90
2631;DHT22;1325;48.414;9.952;2022-07-11T01:28:52;11.20;99.90
2631;DHT22;1325;48.414;9.952;2022-07-11T01:31:22;11.30;99.90
2631;DHT22;1325;48.414;9.952;2022-07-11T01:33:49;11.30;99.90
2631;DHT22;1325;48.414;9.952;2022-07-11T01:36:16;11.40;99.90
2631;DHT22;1325;48.414;9.952;2022-07-11T01:38:44;11.70;99.90
2631;DHT22;1325;48.414;9.952;2022-07-11T01:41:12;11.70;99.90
2631;DHT22;1325;48.414;9.952;2022-07-11T01:43:39;11.60;99.90
2631;DHT22;1325;48.414;9.952;2022-07-11T01:46:06;12.00;99.90
2631;DHT22;1325;48.414;9.952;2022-07-11T01:48:33;11.70;99.90
2631;DHT22;1325;48.414;9.952;2022-07-11T01:51:01;11.50;99.90
2631;DHT22;1325;48.414;9.952;2022-07-11T01:53:28;11.00;99.90
2631;DHT22;1325;48.414;9.952;2022-07-11T01:55:55;10.80;99.90
2631;DHT22;1325;48.414;9.952;2022-07-11T01:58:23;11.00;99.90
2631;DHT22;1325;48.414;9.952;2022-07-11T02:00:50;11.30;99.90
2631;DHT22;1325;48.414;9.952;2022-07-11T02:03:17;11.30;99.90
2631;DHT22;1325;48.414;9.952;2022-07-11T02:05:45;11.30;99.90
2631;DHT22;1325;48.414;9.952;2022-07-11T02:08:12;11.20;99.90
2631;DHT22;1325;48.414;9.952;2022-07-11T02:10:38;11.10;99.90
2631;DHT22;1325;48.414;9.952;2022-07-11T02:13:06;11.40;99.90
2631;DHT22;1325;48.414;9.952;2022-07-11T02:15:36;11.30;99.90
2631;DHT22;1325;48.414;9.952;2022-07-11T02:18:04;11.30;99.90
2631;DHT22;1325;48.414;9.952;2022-07-11T02:20:31;11.40;99.90
2631;DHT22;1325;48.414;9.952;2022-07-11T02:22:58;11.10;99.90
2631;DHT22;1325;48.414;9.952;2022-07-11T02:25:26;11.00;99.90
2631;DHT22;1325;48.414;9.952;2022-07-11T02:27:53;11.00;99.90
2631;DHT22;1325;48.414;9.952;2022-07-11T02:30:20;11.50;99.90
2631;DHT22;1325;48.414;9.952;2022-07-11T02:32:49;11.80;99.90
2631;DHT22;1325;48.414;9.952;2022-07-11T02:35:17;11.50;99.90
2631;DHT22;1325;48.414;9.952;2022-07-11T02:37:44;11.30;99.90
2631;DHT22;1325;48.414;9.952;2022-07-11T02:40:12;11.40;99.90
2631;DHT22;1325;48.414;9.952;2022-07-11T02:42:39;11.90;99.90
2631;DHT22;1325;48.414;9.952;2022-07-11T02:45:07;12.10;99.90
2631;DHT22;1325;48.414;9.952;2022-07-11T02:47:35;11.90;99.90
2631;DHT22;1325;48.414;9.952;2022-07-11T02:50:08;11.70;99.90
2631;DHT22;1325;48.414;9.952;2022-07-11T02:52:37;11.40;99.90
2631;DHT22;1325;48.414;9.952;2022-07-11T02:55:06;11.30;99.90
2631;DHT22;1325;48.414;9.952;2022-07-11T02:57:34;11.20;99.90
2631;DHT22;1325;48.414;9.952;2022-07-11T03:00:03;11.50;99.90
2631;DHT22;1325;48.414;9.952;2022-07-11T03:02:30;11.60;99.90
2631;DHT22;1325;48.414;9.952;2022-07-11T03:04:58;11.90;99.90
2631;DHT22;1325;48.414;9.952;2022-07-11T03:07:27;12.00;99.90
2631;DHT22;1325;48.414;9.952;2022-07-11T03:09:54;12.30;99.90
2631;DHT22;1325;48.414;9.952;2022-07-11T03:12:22;12.50;99.90
2631;DHT22;1325;48.414;9.952;2022-07-11T03:14:49;12.40;99.90
2631;DHT22;1325;48.414;9.952;2022-07-11T03:17:17;12.30;99.90
2631;DHT22;1325;48.414;9.952;2022-07-11T03:19:44;12.30;99.90
2631;DHT22;1325;48.414;9.952;2022-07-11T03:22:12;12.30;99.90
2631;DHT22;1325;48.414;9.952;2022-07-11T03:24:41;12.10;99.90
2631;DHT22;1325;48.414;9.952;2022-07-11T03:27:08;12.20;99.90
2631;DHT22;1325;48.414;9.952;2022-07-11T03:29:36;12.70;99.90
2631;DHT22;1325;48.414;9.952;2022-07-11T03:32:03;12.50;99.90
2631;DHT22;1325;48.414;9.952;2022-07-11T03:34:31;12.60;99.90
2631;DHT22;1325;48.414;9.952;2022-07-11T03:36:58;12.50;99.90
2631;DHT22;1325;48.414;9.952;2022-07-11T03:39:25;12.20;99.90
2631;DHT22;1325;48.414;9.952;2022-07-11T03:41:55;12.30;99.90
2631;DHT22;1325;48.414;9.952;2022-07-11T03:44:22;12.10;99.90
2631;DHT22;1325;48.414;9.952;2022-07-11T03:46:49;11.80;99.90
2631;DHT22;1325;48.414;9.952;2022-07-11T03:49:16;11.80;99.90
2631;DHT22;1325;48.414;9.952;2022-07-11T03:51:43;11.90;99.90
2631;DHT22;1325;48.414;9.952;2022-07-11T03:54:10;12.00;99.90
2631;DHT22;1325;48.414;9.952;2022-07-11T03:56:38;12.30;99.90
2631;DHT22;1325;48.414;9.952;2022-07-11T03:59:06;12.30;99.90
2631;DHT22;1325;48.414;9.952;2022-07-11T04:01:34;12.30;99.90
2631;DHT22;1325;48.414;9.952;2022-07-11T04:04:02;12.40;99.90
2631;DHT22;1325;48.414;9.952;2022-07-11T04:06:29;12.20;99.90
2631;DHT22;1325;48.414;9.952;2022-07-11T04:08:56;12.10;99.90
2631;DHT22;1325;48.414;9.952;2022-07-11T04:11:23;12.00;99.90
2631;DHT22;1325;48.414;9.952;2022-07-11T04:13:50;12.00;99.90
2631;DHT22;1325;48.414;9.952;2022-07-11T04:16:19;11.80;99.90
2631;DHT22;1325;48.414;9.952;2022-07-11T04:18:46;11.80;99.90
2631;DHT22;1325;48.414;9.952;2022-07-11T04:21:13;11.80;99.90
2631;DHT22;1325;48.414;9.952;2022-07-11T04:23:41;11.80;99.90
2631;DHT22;1325;48.414;9.952;2022-07-11T04:26:08;11.90;99.90
2631;DHT22;1325;48.414;9.952;2022-07-11T04:28:35;11.90;99.90
2631;DHT22;1325;48.414;9.952;2022-07-11T04:31:03;12.20;99.90
2631;DHT22;1325;48.414;9.952;2022-07-11T04:33:32;12.70;99.90
2631;DHT22;1325;48.414;9.952;2022-07-11T04:35:59;12.60;99.90
2631;DHT22;1325;48.414;9.952;2022-07-11T04:38:26;12.40;99.90
2631;DHT22;1325;48.414;9.952;2022-07-11T04:40:54;12.80;99.90
2631;DHT22;1325;48.414;9.952;2022-07-11T04:43:21;12.50;99.90
2631;DHT22;1325;48.414;9.952;2022-07-11T04:45:48;12.50;99.90
2631;DHT22;1325;48.414;9.952;2022-07-11T04:48:16;12.70;99.90
2631;DHT22;1325;48.414;9.952;2022-07-11T04:50:45;12.50;99.90
2631;DHT22;1325;48.414;9.952;2022-07-11T04:53:12;12.60;99.90
2631;DHT22;1325;48.414;9.952;2022-07-11T04:55:40;12.70;99.90
2631;DHT22;1325;48.414;9.952;2022-07-11T04:58:07;12.80;99.90
2631;DHT22;1325;48.414;9.952;2022-07-11T05:00:35;13.10;99.90
2631;DHT22;1325;48.414;9.952;2022-07-11T05:03:02;13.10;99.90
2631;DHT22;1325;48.414;9.952;2022-07-11T05:05:30;13.00;99.90
2631;DHT22;1325;48.414;9.952;2022-07-11T05:07:59;13.20;99.90
2631;DHT22;1325;48.414;9.952;2022-07-11T05:10:26;13.60;99.90
2631;DHT22;1325;48.414;9.952;2022-07-11T05:12:53;13.90;99.90
2631;DHT22;1325;48.414;9.952;2022-07-11T05:15:21;13.90;99.90
2631;DHT22;1325;48.414;9.952;2022-07-11T05:17:48;13.70;99.90
2631;DHT22;1325;48.414;9.952;2022-07-11T05:20:15;13.60;99.90
2631;DHT22;1325;48.414;9.952;2022-07-11T05:22:43;13.70;99.90
2631;DHT22;1325;48.414;9.952;2022-07-11T05:25:11;13.80;99.90
2631;DHT22;1325;48.414;9.952;2022-07-11T05:27:39;13.80;99.90
2631;DHT22;1325;48.414;9.952;2022-07-11T05:30:08;13.90;99.90
2631;DHT22;1325;48.414;9.952;2022-07-11T05:32:35;14.20;99.90
2631;DHT22;1325;48.414;9.952;2022-07-11T05:35:03;14.30;99.90
2631;DHT22;1325;48.414;9.952;2022-07-11T05:37:31;14.50;99.90
2631;DHT22;1325;48.414;9.952;2022-07-11T05:39:58;14.50;99.90
2631;DHT22;1325;48.414;9.952;2022-07-11T05:42:27;14.70;99.90
2631;DHT22;1325;48.414;9.952;2022-07-11T05:44:54;14.50;99.90
2631;DHT22;1325;48.414;9.952;2022-07-11T05:47:21;14.70;99.90
2631;DHT22;1325;48.414;9.952;2022-07-11T05:49:49;14.70;99.90
2631;DHT22;1325;48.414;9.952;2022-07-11T05:52:16;14.50;99.90
2631;DHT22;1325;48.414;9.952;2022-07-11T05:54:43;14.80;99.90
2631;DHT22;1325;48.414;9.952;2022-07-11T05:57:10;15.30;99.90
2631;DHT22;1325;48.414;9.952;2022-07-11T05:59:38;15.50;99.90
2631;DHT22;1325;48.414;9.952;2022-07-11T06:02:06;15.70;99.90
2631;DHT22;1325;48.414;9.952;2022-07-11T06:04:34;15.80;99.90
2631;DHT22;1325;48.414;9.952;2022-07-11T06:07:02;16.00;99.90
2631;DHT22;1325;48.414;9.952;2022-07-11T06:09:30;15.60;99.90
2631;DHT22;1325;48.414;9.952;2022-07-11T06:11:56;15.80;99.90
2631;DHT22;1325;48.414;9.952;2022-07-11T06:14:23;15.60;99.90
2631;DHT22;1325;48.414;9.952;2022-07-11T06:16:53;15.50;99.90
2631;DHT22;1325;48.414;9.952;2022-07-11T06:19:20;15.30;99.90
2631;DHT22;1325;48.414;9.952;2022-07-11T06:21:47;15.50;99.90
2631;DHT22;1325;48.414;9.952;2022-07-11T06:24:15;15.90;99.90
2631;DHT22;1325;48.414;9.952;2022-07-11T06:26:42;15.50;99.90
2631;DHT22;1325;48.414;9.952;2022-07-11T06:29:09;16.00;99.90
2631;DHT22;1325;48.414;9.952;2022-07-11T06:31:36;15.90;99.90
2631;DHT22;1325;48.414;9.952;2022-07-11T06:34:04;15.80;99.90
2631;DHT22;1325;48.414;9.952;2022-07-11T06:36:31;16.00;99.90
2631;DHT22;1325;48.414;9.952;2022-07-11T06:38:59;16.00;99.90
2631;DHT22;1325;48.414;9.952;2022-07-11T06:41:26;16.00;99.90
2631;DHT22;1325;48.414;9.952;2022-07-11T06:43:53;16.10;99.90
2631;DHT22;1325;48.414;9.952;2022-07-11T06:46:20;16.80;99.90
2631;DHT22;1325;48.414;9.952;2022-07-11T06:48:47;16.60;99.90
2631;DHT22;1325;48.414;9.952;2022-07-11T06:51:16;16.80;99.90
2631;DHT22;1325;48.414;9.952;2022-07-11T06:53:43;16.50;99.90
2631;DHT22;1325;48.414;9.952;2022-07-11T06:56:16;16.50;99.90
2631;DHT22;1325;48.414;9.952;2022-07-11T06:58:43;16.60;99.90
2631;DHT22;1325;48.414;9.952;2022-07-11T07:01:10;16.90;99.90
2631;DHT22;1325;48.414;9.952;2022-07-11T07:03:38;17.00;99.90
2631;DHT22;1325;48.414;9.952;2022-07-11T07:06:05;16.80;99.90
2631;DHT22;1325;48.414;9.952;2022-07-11T07:08:33;16.90;99.90
2631;DHT22;1325;48.414;9.952;2022-07-11T07:11:01;17.60;99.90
2631;DHT22;1325;48.414;9.952;2022-07-11T07:13:28;18.10;99.90
2631;DHT22;1325;48.414;9.952;2022-07-11T07:15:55;18.40;99.90
2631;DHT22;1325;48.414;9.952;2022-07-11T07:18:25;18.10;99.90
2631;DHT22;1325;48.414;9.952;2022-07-11T07:20:53;18.40;99.90
2631;DHT22;1325;48.414;9.952;2022-07-11T07:23:20;18.60;99.90
2631;DHT22;1325;48.414;9.952;2022-07-11T07:25:48;18.60;99.90
2631;DHT22;1325;48.414;9.952;2022-07-11T07:28:15;18.10;99.90
2631;DHT22;1325;48.414;9.952;2022-07-11T07:30:43;18.20;99.90
2631;DHT22;1325;48.414;9.952;2022-07-11T07:33:11;18.40;99.90
2631;DHT22;1325;48.414;9.952;2022-07-11T07:35:38;18.70;99.90
2631;DHT22;1325;48.414;9.952;2022-07-11T07:38:06;18.90;99.90
2631;DHT22;1325;48.414;9.952;2022-07-11T07:40:33;19.40;99.90
2631;DHT22;1325;48.414;9.952;2022-07-11T07:43:01;19.10;99.90
2631;DHT22;1325;48.414;9.952;2022-07-11T07:45:29;19.20;99.90
2631;DHT22;1325;48.414;9.952;2022-07-11T07:47:56;19.40;99.90
2631;DHT22;1325;48.414;9.952;2022-07-11T07:50:23;18.90;99.90
2631;DHT22;1325;48.414;9.952;2022-07-11T07:52:50;18.70;99.90
2631;DHT22;1325;48.414;9.952;2022-07-11T07:55:17;19.60;99.90
2631;DHT22;1325;48.414;9.952;2022-07-11T07:57:44;20.50;99.90
2631;DHT22;1325;48.414;9.952;2022-07-11T08:00:13;21.00;99.90
2631;DHT22;1325;48.414;9.952;2022-07-11T08:03:03;21.70;99.90
2631;DHT22;1325;48.414;9.952;2022-07-11T08:05:31;21.60;99.90
2631;DHT22;1325;48.414;9.952;2022-07-11T08:07:59;21.10;99.90
2631;DHT22;1325;48.414;9.952;2022-07-11T08:10:26;21.00;99.90
2631;DHT22;1325;48.414;9.952;2022-07-11T08:12:54;21.10;99.90
2631;DHT22;1325;48.414;9.952;2022-07-11T08:15:22;21.70;99.90
2631;DHT22;1325;48.414;9.952;2022-07-11T08:17:50;21.60;99.90
2631;DHT22;1325;48.414;9.952;2022-07-11T08:20:18;22.30;99.90
2631;DHT22;1325;48.414;9.952;2022-07-11T08:22:45;21.30;99.90
2631;DHT22;1325;48.414;9.952;2022-07-11T08:25:12;22.00;99.90
2631;DHT22;1325;48.414;9.952;2022-07-11T08:27:40;22.00;99.90
2631;DHT22;1325;48.414;9.952;2022-07-11T08:30:08;22.40;99.90
2631;DHT22;1325;48.414;9.952;2022-07-11T08:32:39;22.30;99.90
2631;DHT22;1325;48.414;9.952;2022-07-11T08:35:07;21.70;99.90
2631;DHT22;1325;48.414;9.952;2022-07-11T08:37:34;21.30;99.90
2631;DHT22;1325;48.414;9.952;2022-07-11T08:40:03;20.40;99.90
2631;DHT22;1325;48.414;9.952;2022-07-11T08:42:31;19.40;99.90
2631;DHT22;1325;48.414;9.952;2022-07-11T08:45:04;19.40;99.90
2631;DHT22;1325;48.414;9.952;2022-07-11T08:47:32;19.20;99.90
2631;DHT22;1325;48.414;9.952;2022-07-11T08:50:01;19.20;99.90
2631;DHT22;1325;48.414;9.952;2022-07-11T08:52:30;19.90;99.90
2631;DHT22;1325;48.414;9.952;2022-07-11T08:54:58;20.90;99.90
2631;DHT22;1325;48.414;9.952;2022-07-11T08:57:25;22.10;99.90
2631;DHT22;1325;48.414;9.952;2022-07-11T08:59:54;23.40;99.90
2631;DHT22;1325;48.414;9.952;2022-07-11T09:02:23;22.50;99.90
2631;DHT22;1325;48.414;9.952;2022-07-11T09:04:51;22.20;99.90
2631;DHT22;1325;48.414;9.952;2022-07-11T09:07:25;21.70;99.90
2631;DHT22;1325;48.414;9.952;2022-07-11T09:09:54;21.50;99.90
2631;DHT22;1325;48.414;9.952;2022-07-11T09:12:21;20.90;99.90
2631;DHT22;1325;48.414;9.952;2022-07-11T09:14:49;20.70;99.90
2631;DHT22;1325;48.414;9.952;2022-07-11T09:17:24;20.80;99.90
2631;DHT22;1325;48.414;9.952;2022-07-11T09:19:54;21.00;99.90
2631;DHT22;1325;48.414;9.952;2022-07-11T09:22:22;20.60;99.90
2631;DHT22;1325;48.414;9.952;2022-07-11T09:25:10;20.90;99.90
2631;DHT22;1325;48.414;9.952;2022-07-11T09:27:50;21.00;99.90
2631;DHT22;1325;48.414;9.952;2022-07-11T09:30:21;21.50;99.90
2631;DHT22;1325;48.414;9.952;2022-07-11T09:32:58;20.80;99.90
2631;DHT22;1325;48.414;9.952;2022-07-11T09:35:28;20.60;99.90
2631;DHT22;1325;48.414;9.952;2022-07-11T09:37:56;21.30;99.90
2631;DHT22;1325;48.414;9.952;2022-07-11T09:40:25;21.80;99.90
2631;DHT22;1325;48.414;9.952;2022-07-11T09:42:54;21.60;99.90
2631;DHT22;1325;48.414;9.952;2022-07-11T09:45:23;21.40;99.90
2631;DHT22;1325;48.414;9.952;2022-07-11T09:47:52;20.80;99.90
2631;DHT22;1325;48.414;9.952;2022-07-11T09:50:22;21.10;99.90
2631;DHT22;1325;48.414;9.952;2022-07-11T09:53:01;21.40;99.90
2631;DHT22;1325;48.414;9.952;2022-07-11T09:55:30;22.60;99.90
2631;DHT22;1325;48.414;9.952;2022-07-11T09:57:59;23.40;99.90
2631;DHT22;1325;48.414;9.952;2022-07-11T10:00:31;23.90;99.90
2631;DHT22;1325;48.414;9.952;2022-07-11T10:02:59;23.30;99.90
2631;DHT22;1325;48.414;9.952;2022-07-11T10:05:27;23.00;99.90
2631;DHT22;1325;48.414;9.952;2022-07-11T10:07:55;23.40;99.90
2631;DHT22;1325;48.414;9.952;2022-07-11T10:10:23;23.20;99.90
2631;DHT22;1325;48.414;9.952;2022-07-11T10:12:53;23.10;99.90
2631;DHT22;1325;48.414;9.952;2022-07-11T10:15:23;23.10;99.90
2631;DHT22;1325;48.414;9.952;2022-07-11T10:18:04;22.80;99.90
2631;DHT22;1325;48.414;9.952;2022-07-11T10:20:40;22.60;99.90
2631;DHT22;1325;48.414;9.952;2022-07-11T10:23:16;23.30;99.90
2631;DHT22;1325;48.414;9.952;2022-07-11T10:25:50;23.10;99.90
2631;DHT22;1325;48.414;9.952;2022-07-11T10:28:26;23.50;99.90
2631;DHT22;1325;48.414;9.952;2022-07-11T10:30:57;22.70;99.90
2631;DHT22;1325;48.414;9.952;2022-07-11T10:33:26;22.60;99.90
2631;DHT22;1325;48.414;9.952;2022-07-11T10:35:54;22.90;99.90
2631;DHT22;1325;48.414;9.952;2022-07-11T10:38:22;23.10;99.90
2631;DHT22;1325;48.414;9.952;2022-07-11T10:40:51;22.60;99.90
2631;DHT22;1325;48.414;9.952;2022-07-11T10:43:35;22.50;99.90
2631;DHT22;1325;48.414;9.952;2022-07-11T10:46:06;22.00;99.90
2631;DHT22;1325;48.414;9.952;2022-07-11T10:48:34;22.70;99.90
2631;DHT22;1325;48.414;9.952;2022-07-11T10:51:15;22.80;99.90
2631;DHT22;1325;48.414;9.952;2022-07-11T10:53:48;22.60;99.90
2631;DHT22;1325;48.414;9.952;2022-07-11T10:56:36;22.70;99.90
2631;DHT22;1325;48.414;9.952;2022-07-11T10:59:16;22.80;99.90
2631;DHT22;1325;48.414;9.952;2022-07-11T11:02:17;22.50;99.90
2631;DHT22;1325;48.414;9.952;2022-07-11T11:04:50;22.90;99.90
2631;DHT22;1325;48.414;9.952;2022-07-11T11:07:31;22.60;99.90
2631;DHT22;1325;48.414;9.952;2022-07-11T11:10:02;23.20;99.90
2631;DHT22;1325;48.414;9.952;2022-07-11T11:13:09;23.00;99.90
2631;DHT22;1325;48.414;9.952;2022-07-11T11:15:42;22.90;99.90
2631;DHT22;1325;48.414;9.952;2022-07-11T11:18:33;22.60;99.90
2631;DHT22;1325;48.414;9.952;2022-07-11T11:21:20;21.90;99.90
2631;DHT22;1325;48.414;9.952;2022-07-11T11:24:07;21.60;99.90
2631;DHT22;1325;48.414;9.952;2022-07-11T11:26:49;21.50;99.90
2631;DHT22;1325;48.414;9.952;2022-07-11T11:29:20;22.00;99.90
2631;DHT22;1325;48.414;9.952;2022-07-11T11:31:52;22.20;99.90
2631;DHT22;1325;48.414;9.952;2022-07-11T11:34:21;22.10;99.90
2631;DHT22;1325;48.414;9.952;2022-07-11T11:37:00;22.20;99.90
2631;DHT22;1325;48.414;9.952;2022-07-11T11:39:31;22.20;99.90
2631;DHT22;1325;48.414;9.952;2022-07-11T11:42:04;22.20;99.90
2631;DHT22;1325;48.414;9.952;2022-07-11T11:44:33;22.20;99.90
2631;DHT22;1325;48.414;9.952;2022-07-11T11:47:02;22.70;99.90
2631;DHT22;1325;48.414;9.952;2022-07-11T11:49:41;22.40;99.90
2631;DHT22;1325;48.414;9.952;2022-07-11T11:52:09;22.80;99.90
2631;DHT22;1325;48.414;9.952;2022-07-11T11:54:38;22.50;99.90
2631;DHT22;1325;48.414;9.952;2022-07-11T11:57:07;22.20;99.90
2631;DHT22;1325;48.414;9.952;2022-07-11T11:59:37;22.10;99.90
2631;DHT22;1325;48.414;9.952;2022-07-11T12:02:06;22.20;99.90
2631;DHT22;1325;48.414;9.952;2022-07-11T12:04:35;22.90;99.90
2631;DHT22;1325;48.414;9.952;2022-07-11T12:07:04;23.60;99.90
2631;DHT22;1325;48.414;9.952;2022-07-11T12:09:32;23.70;99.90
2631;DHT22;1325;48.414;9.952;2022-07-11T12:12:20;23.30;99.90
2631;DHT22;1325;48.414;9.952;2022-07-11T12:15:06;23.40;99.90
2631;DHT22;1325;48.414;9.952;2022-07-11T12:17:50;23.80;99.90
2631;DHT22;1325;48.414;9.952;2022-07-11T12:20:34;24.00;99.90
2631;DHT22;1325;48.414;9.952;2022-07-11T12:23:06;23.90;99.90
2631;DHT22;1325;48.414;9.952;2022-07-11T12:25:35;23.70;99.90
2631;DHT22;1325;48.414;9.952;2022-07-11T12:28:03;23.00;99.90
2631;DHT22;1325;48.414;9.952;2022-07-11T12:30:33;22.80;99.90
2631;DHT22;1325;48.414;9.952;2022-07-11T12:33:12;22.70;99.90
2631;DHT22;1325;48.414;9.952;2022-07-11T12:35:54;22.40;99.90
2631;DHT22;1325;48.414;9.952;2022-07-11T12:38:22;22.60;99.90
2631;DHT22;1325;48.414;9.952;2022-07-11T12:41:03;22.40;99.90
2631;DHT22;1325;48.414;9.952;2022-07-11T12:43:41;22.10;99.90
2631;DHT22;1325;48.414;9.952;2022-07-11T12:46:29;22.50;99.90
2631;DHT22;1325;48.414;9.952;2022-07-11T12:49:00;22.90;99.90
2631;DHT22;1325;48.414;9.952;2022-07-11T12:51:29;22.80;99.90
2631;DHT22;1325;48.414;9.952;2022-07-11T12:54:02;22.70;99.90
2631;DHT22;1325;48.414;9.952;2022-07-11T12:56:31;22.70;99.90
2631;DHT22;1325;48.414;9.952;2022-07-11T12:58:59;22.70;99.90
2631;DHT22;1325;48.414;9.952;2022-07-11T13:01:27;22.40;99.90
2631;DHT22;1325;48.414;9.952;2022-07-11T13:03:54;22.50;99.90
2631;DHT22;1325;48.414;9.952;2022-07-11T13:06:23;22.30;99.90
2631;DHT22;1325;48.414;9.952;2022-07-11T13:09:04;22.40;99.90
2631;DHT22;1325;48.414;9.952;2022-07-11T13:11:32;22.50;99.90
2631;DHT22;1325;48.414;9.952;2022-07-11T13:13:59;22.40;99.90
2631;DHT22;1325;48.414;9.952;2022-07-11T13:16:26;22.60;99.90
2631;DHT22;1325;48.414;9.952;2022-07-11T13:18:54;23.00;99.90
2631;DHT22;1325;48.414;9.952;2022-07-11T13:21:22;22.90;99.90
2631;DHT22;1325;48.414;9.952;2022-07-11T13:23:50;23.10;99.90
2631;DHT22;1325;48.414;9.952;2022-07-11T13:26:18;23.10;99.90
2631;DHT22;1325;48.414;9.952;2022-07-11T13:28:48;23.00;99.90
2631;DHT22;1325;48.414;9.952;2022-07-11T13:31:15;23.40;99.90
2631;DHT22;1325;48.414;9.952;2022-07-11T13:33:42;23.20;99.90
2631;DHT22;1325;48.414;9.952;2022-07-11T13:36:10;23.10;99.90
2631;DHT22;1325;48.414;9.952;2022-07-11T13:38:39;22.80;99.90
2631;DHT22;1325;48.414;9.952;2022-07-11T13:41:06;22.50;99.90
2631;DHT22;1325;48.414;9.952;2022-07-11T13:43:34;22.50;99.90
2631;DHT22;1325;48.414;9.952;2022-07-11T13:46:03;22.60;99.90
2631;DHT22;1325;48.414;9.952;2022-07-11T13:48:30;23.10;99.90
2631;DHT22;1325;48.414;9.952;2022-07-11T13:50:57;23.10;99.90
2631;DHT22;1325;48.414;9.952;2022-07-11T13:53:25;23.00;99.90
2631;DHT22;1325;48.414;9.952;2022-07-11T13:55:54;22.20;99.90
2631;DHT22;1325;48.414;9.952;2022-07-11T13:58:21;21.70;99.90
2631;DHT22;1325;48.414;9.952;2022-07-11T14:00:51;22.40;99.90
2631;DHT22;1325;48.414;9.952;2022-07-11T14:03:19;22.70;99.90
2631;DHT22;1325;48.414;9.952;2022-07-11T14:05:46;22.00;99.90
2631;DHT22;1325;48.414;9.952;2022-07-11T14:08:13;22.20;99.90
2631;DHT22;1325;48.414;9.952;2022-07-11T14:10:41;22.30;99.90
2631;DHT22;1325;48.414;9.952;2022-07-11T14:13:10;22.50;99.90
2631;DHT22;1325;48.414;9.952;2022-07-11T14:15:38;22.60;99.90
2631;DHT22;1325;48.414;9.952;2022-07-11T14:18:06;22.80;99.90
2631;DHT22;1325;48.414;9.952;2022-07-11T14:20:34;22.50;99.90
2631;DHT22;1325;48.414;9.952;2022-07-11T14:23:01;22.40;99.90
2631;DHT22;1325;48.414;9.952;2022-07-11T14:25:29;22.70;99.90
2631;DHT22;1325;48.414;9.952;2022-07-11T14:27:56;22.60;99.90
2631;DHT22;1325;48.414;9.952;2022-07-11T14:30:25;22.30;99.90
2631;DHT22;1325;48.414;9.952;2022-07-11T14:32:52;21.70;99.90
2631;DHT22;1325;48.414;9.952;2022-07-11T14:35:19;22.00;99.90
2631;DHT22;1325;48.414;9.952;2022-07-11T14:37:47;22.10;99.90
2631;DHT22;1325;48.414;9.952;2022-07-11T14:40:14;22.00;99.90
2631;DHT22;1325;48.414;9.952;2022-07-11T14:42:42;21.90;99.90
2631;DHT22;1325;48.414;9.952;2022-07-11T14:45:10;22.20;99.90
2631;DHT22;1325;48.414;9.952;2022-07-11T14:47:39;22.10;99.90
2631;DHT22;1325;48.414;9.952;2022-07-11T14:50:08;22.10;99.90
2631;DHT22;1325;48.414;9.952;2022-07-11T14:52:35;22.30;99.90
2631;DHT22;1325;48.414;9.952;2022-07-11T14:55:04;22.00;99.90
2631;DHT22;1325;48.414;9.952;2022-07-11T14:57:32;21.90;99.90
2631;DHT22;1325;48.414;9.952;2022-07-11T15:00:00;22.20;99.90
2631;DHT22;1325;48.414;9.952;2022-07-11T15:02:27;22.10;99.90
2631;DHT22;1325;48.414;9.952;2022-07-11T15:05:10;21.70;99.90
2631;DHT22;1325;48.414;9.952;2022-07-11T15:07:37;21.90;99.90
2631;DHT22;1325;48.414;9.952;2022-07-11T15:10:21;22.00;99.90
2631;DHT22;1325;48.414;9.952;2022-07-11T15:13:06;22.50;99.90
2631;DHT22;1325;48.414;9.952;2022-07-11T15:15:33;22.60;99.90
2631;DHT22;1325;48.414;9.952;2022-07-11T15:18:00;22.10;99.90
2631;DHT22;1325;48.414;9.952;2022-07-11T15:20:29;21.70;99.90
2631;DHT22;1325;48.414;9.952;2022-07-11T15:22:56;21.70;99.90
2631;DHT22;1325;48.414;9.952;2022-07-11T15:25:24;21.70;99.90
2631;DHT22;1325;48.414;9.952;2022-07-11T15:27:51;21.70;99.90
2631;DHT22;1325;48.414;9.952;2022-07-11T15:30:19;21.70;99.90
2631;DHT22;1325;48.414;9.952;2022-07-11T15:32:46;21.90;99.90
2631;DHT22;1325;48.414;9.952;2022-07-11T15:35:14;22.00;99.90
2631;DHT22;1325;48.414;9.952;2022-07-11T15:37:43;21.80;99.90
2631;DHT22;1325;48.414;9.952;2022-07-11T15:40:10;21.80;99.90
2631;DHT22;1325;48.414;9.952;2022-07-11T15:42:38;21.60;99.90
2631;DHT22;1325;48.414;9.952;2022-07-11T15:45:06;21.80;99.90
2631;DHT22;1325;48.414;9.952;2022-07-11T15:47:34;21.50;99.90
2631;DHT22;1325;48.414;9.952;2022-07-11T15:50:02;22.00;99.90
2631;DHT22;1325;48.414;9.952;2022-07-11T15:52:30;22.40;99.90
2631;DHT22;1325;48.414;9.952;2022-07-11T15:54:59;22.30;99.90
2631;DHT22;1325;48.414;9.952;2022-07-11T15:57:26;22.60;99.90
2631;DHT22;1325;48.414;9.952;2022-07-11T15:59:54;22.40;99.90
2631;DHT22;1325;48.414;9.952;2022-07-11T16:02:21;22.40;99.90
2631;DHT22;1325;48.414;9.952;2022-07-11T16:04:49;22.10;99.90
2631;DHT22;1325;48.414;9.952;2022-07-11T16:07:16;22.40;99.90
2631;DHT22;1325;48.414;9.952;2022-07-11T16:09:43;22.50;99.90
2631;DHT22;1325;48.414;9.952;2022-07-11T16:12:12;22.00;99.90
2631;DHT22;1325;48.414;9.952;2022-07-11T16:14:39;22.10;99.90
2631;DHT22;1325;48.414;9.952;2022-07-11T16:17:07;21.70;99.90